Terminal Aerodrome Forecast
Issued by NWS Wakefield, VA

Home | Current Version | Previous Version | Text Only | Print | Product List | Glossary On
Versions: 1 2 3 4 5 6 7 8 9 10 11 12 13 14 15
000
FTUS41 KAKQ 301100
TAFECG
TAF
KECG 301140Z 3012/3112 28011KT P6SM -SHRA OVC060
     FM301400 31015G24KT P6SM BKN060
     FM301800 32020G29KT P6SM BKN040
     FM302200 32017G25KT P6SM SCT040=

USA.gov is the U.S. government's official web portal to all federal, state and local government web resources and services.